createdAt,value
2022-10-17T00:04:48.539Z,6.9
2022-10-17T00:08:54.810Z,6.4
2022-10-17T00:10:57.932Z,6.6
2022-10-17T00:13:01.034Z,8
2022-10-17T00:15:04.180Z,7.5
2022-10-17T00:17:07.297Z,7.4
2022-10-17T00:19:13.671Z,8.7
2022-10-17T00:21:16.803Z,8.6
2022-10-17T00:24:23.112Z,8.9
2022-10-17T00:26:26.227Z,9
2022-10-17T00:28:29.426Z,7.2
2022-10-17T00:30:32.500Z,7.4
2022-10-17T00:32:38.835Z,10.5
2022-10-17T00:34:41.944Z,8.7
2022-10-17T00:36:45.100Z,9.4
2022-10-17T00:38:48.232Z,10
2022-10-17T00:42:54.490Z,9
2022-10-17T00:47:03.997Z,8.8
2022-10-17T00:49:07.138Z,9.4
2022-10-17T00:55:16.543Z,7.3
2022-10-17T00:57:19.694Z,9.8
2022-10-17T01:01:29.238Z,10.4
2022-10-17T01:03:32.312Z,10.3
2022-10-17T01:05:35.458Z,11.9
2022-10-17T01:09:41.729Z,11
2022-10-17T01:15:54.354Z,9.6
2022-10-17T01:17:57.481Z,8.3
2022-10-17T01:21:03.792Z,12.2
2022-10-17T01:23:06.921Z,10.9
2022-10-17T01:25:10.082Z,11
2022-10-17T01:27:13.213Z,12.9
2022-10-17T01:29:19.578Z,10.6
2022-10-17T01:31:22.723Z,10.4
2022-10-17T01:33:25.856Z,10.2
2022-10-17T01:35:28.986Z,13.1
2022-10-17T01:37:32.113Z,10.6
2022-10-17T01:39:36.999Z,10.3
2022-10-17T01:41:38.398Z,9.9
2022-10-17T01:43:44.761Z,12.4
2022-10-17T01:45:47.885Z,12.1
2022-10-17T01:47:51.044Z,11
2022-10-17T01:49:54.176Z,11
2022-10-17T01:51:57.292Z,10.1
2022-10-17T01:54:00.441Z,11.1
2022-10-17T01:56:03.565Z,11.3
2022-10-17T01:58:09.937Z,14.3
2022-10-17T02:00:13.072Z,12
2022-10-17T02:02:16.197Z,13.3
2022-10-17T02:06:22.454Z,12.4
2022-10-17T02:08:25.574Z,13.8
2022-10-17T02:10:28.711Z,10.8
2022-10-17T02:12:35.075Z,12.8
2022-10-17T02:14:38.210Z,12.4
2022-10-17T02:16:41.332Z,14.8
2022-10-17T02:19:03.368Z,13.5
2022-10-17T02:21:06.527Z,12.2
2022-10-17T02:23:09.750Z,13.6
2022-10-17T02:25:15.988Z,14.1
2022-10-17T02:27:19.150Z,11.1
2022-10-17T02:29:22.244Z,15.7
2022-10-17T02:31:25.381Z,13.3
2022-10-17T02:33:28.524Z,11.9
2022-10-17T02:35:31.659Z,12.1
2022-10-17T02:37:34.766Z,13.3
2022-10-17T02:39:41.137Z,14.4
2022-10-17T02:41:44.274Z,12.2
2022-10-17T02:43:48.984Z,12.6
2022-10-17T02:45:52.079Z,13.5
2022-10-17T02:47:55.202Z,12.9
2022-10-17T02:49:58.340Z,14
2022-10-17T02:52:01.471Z,11.8
2022-10-17T02:54:07.825Z,15.1
2022-10-17T02:56:10.931Z,14.5
2022-10-17T02:58:14.083Z,13.4
2022-10-17T03:00:17.223Z,12.6
2022-10-17T03:02:20.341Z,10.8
2022-10-17T03:04:23.477Z,12.1
2022-10-17T03:06:26.626Z,13.7
2022-10-17T03:08:33.025Z,15.5
2022-10-17T03:10:36.131Z,14.3
2022-10-17T03:12:39.262Z,14.5
2022-10-17T03:13:42.427Z,15.2
2022-10-17T03:15:45.562Z,13.9
2022-10-17T03:17:48.705Z,13.5
2022-10-17T03:19:51.834Z,15.3
2022-10-17T03:28:07.572Z,15.3
2022-10-17T03:30:10.720Z,12.4
2022-10-17T03:34:16.955Z,14.1
2022-10-17T03:40:29.579Z,16.1
2022-10-17T03:44:35.832Z,17.4
2022-10-17T03:46:38.966Z,14.7
2022-10-17T03:48:42.097Z,14.4
2022-10-17T03:50:48.466Z,18.1
2022-10-17T03:52:51.585Z,16.9
2022-10-17T03:59:00.983Z,15.4
2022-10-17T04:01:04.123Z,16.2
2022-10-17T04:03:07.222Z,18.4
2022-10-17T04:07:16.748Z,19.7
2022-10-17T04:09:19.802Z,18.2
2022-10-17T04:10:22.981Z,16.5
2022-10-17T04:14:29.255Z,16.1
2022-10-17T04:16:32.375Z,17.5
2022-10-17T04:18:38.738Z,17.3
2022-10-17T04:20:41.855Z,18.7
2022-10-17T04:22:44.982Z,19
2022-10-17T04:24:48.133Z,15.9
2022-10-17T04:26:51.248Z,16.7
2022-10-17T04:28:54.373Z,16.5
2022-10-17T04:30:57.491Z,15.2
2022-10-17T04:33:03.876Z,18.6
2022-10-17T04:35:07.000Z,17.3
2022-10-17T04:37:10.141Z,14.9
2022-10-17T04:41:16.396Z,14.9
2022-10-17T04:43:19.519Z,16.9
2022-10-17T04:45:22.653Z,18.2
2022-10-17T04:47:29.023Z,19.1
2022-10-17T04:49:32.212Z,14.8
2022-10-17T04:51:35.269Z,18.7
2022-10-17T04:53:38.409Z,16.3
2022-10-17T04:59:47.808Z,16.8
2022-10-17T05:07:03.612Z,17.6
2022-10-17T05:09:06.754Z,17
2022-10-17T05:11:09.862Z,15.8
2022-10-17T05:13:13.007Z,17.2
2022-10-17T05:15:19.349Z,17.6
2022-10-17T05:17:22.498Z,22.3
2022-10-17T05:19:25.600Z,15.5
2022-10-17T05:21:28.788Z,15.2
2022-10-17T05:23:31.891Z,15
2022-10-17T05:25:35.037Z,15.2
2022-10-17T05:27:38.142Z,14.7
2022-10-17T05:29:44.488Z,16.4
2022-10-17T05:31:47.617Z,15
2022-10-17T05:33:50.758Z,16.3
2022-10-17T05:35:53.893Z,14.2
2022-10-17T05:37:57.038Z,13
2022-10-17T05:40:00.140Z,14.3
2022-10-17T05:42:03.281Z,12.3
2022-10-17T05:44:09.529Z,11.9
2022-10-17T05:46:12.572Z,13.2
2022-10-17T05:48:15.702Z,11.9
2022-10-17T05:50:18.711Z,13.1
2022-10-17T05:52:21.740Z,11.5
2022-10-17T05:54:24.759Z,13.1
2022-10-17T05:56:27.803Z,11.7
2022-10-17T05:58:50.614Z,12.3
2022-10-17T06:00:37.049Z,11.5
2022-10-17T06:02:40.006Z,10.5
2022-10-17T06:05:09.533Z,10.8
2022-10-17T06:07:12.569Z,12.9
2022-10-17T06:09:15.583Z,9.8
2022-10-17T06:13:24.790Z,9.3
2022-10-17T06:15:27.815Z,10.7
2022-10-17T06:21:36.893Z,9.2
2022-10-17T06:23:39.927Z,8.6
2022-10-17T06:25:46.093Z,10.3
2022-10-17T06:27:49.141Z,7.6
2022-10-17T06:29:52.140Z,7.6
2022-10-17T06:31:55.170Z,9.1
2022-10-17T06:33:58.212Z,7
2022-10-17T06:36:01.263Z,7.7
2022-10-17T06:38:04.283Z,8.2
2022-10-17T06:40:10.456Z,7.2
2022-10-17T06:42:13.472Z,8.3
2022-10-17T06:44:16.500Z,8.9
2022-10-17T06:46:19.516Z,7.9
2022-10-17T06:48:22.561Z,7.9
2022-10-17T06:50:25.623Z,8.6
2022-10-17T06:52:28.618Z,8.9
2022-10-17T06:54:34.780Z,5.8
2022-10-17T06:56:37.790Z,7.8
2022-10-17T06:58:40.821Z,7.1
2022-10-17T06:59:43.916Z,7
2022-10-17T07:01:47.290Z,6.8
2022-10-17T07:03:49.971Z,6.7
2022-10-17T07:05:52.997Z,5.3
2022-10-17T07:07:59.143Z,5.3
2022-10-17T07:10:02.201Z,5.9
2022-10-17T07:12:05.195Z,5
2022-10-17T07:14:08.247Z,6.9
2022-10-17T07:16:11.267Z,5.6
2022-10-17T07:26:29.547Z,6.5
2022-10-17T07:28:32.616Z,4.9
2022-10-17T07:32:38.587Z,4.4
2022-10-17T07:34:41.635Z,3.3
2022-10-17T07:36:47.770Z,4
2022-10-17T07:38:50.794Z,3.9
2022-10-17T07:40:53.832Z,5.7
2022-10-17T07:42:56.866Z,4.9
2022-10-17T07:44:59.868Z,3.2
2022-10-17T07:47:02.911Z,5
2022-10-17T07:49:05.921Z,4.3
2022-10-17T07:51:12.061Z,2.8
2022-10-17T07:53:15.065Z,4
2022-10-17T07:55:18.096Z,3.7
2022-10-17T07:56:21.164Z,4.4
2022-10-17T07:58:24.192Z,3.5
2022-10-17T08:00:27.418Z,3
2022-10-17T08:02:30.587Z,3.5
2022-10-17T08:04:36.358Z,3
2022-10-17T08:06:39.369Z,4
2022-10-17T08:08:42.396Z,3
2022-10-17T08:10:45.413Z,3.9
2022-10-17T08:12:48.427Z,2.9
2022-10-17T08:14:51.434Z,4.3
2022-10-17T08:16:54.456Z,3.3
2022-10-17T08:19:00.654Z,3.7
2022-10-17T08:21:03.645Z,3.2
2022-10-17T08:23:06.636Z,2.9
2022-10-17T08:25:09.670Z,2.3
2022-10-17T08:31:18.744Z,3.6
2022-10-17T08:35:27.904Z,3.7
2022-10-17T08:47:50.605Z,4.6
2022-10-17T08:52:59.723Z,5
2022-10-17T08:55:02.740Z,2.9
2022-10-17T08:57:05.752Z,5.8
2022-10-17T08:59:08.786Z,3.7
2022-10-17T09:01:14.927Z,5.2
2022-10-17T09:03:18.056Z,4.8
2022-10-17T09:07:23.994Z,5.1
2022-10-17T09:09:27.037Z,6
2022-10-17T09:11:30.049Z,6.7
2022-10-17T09:13:33.136Z,6.8
2022-10-17T09:15:39.217Z,5.6
2022-10-17T09:17:42.244Z,5.2
2022-10-17T09:19:45.249Z,7.3
2022-10-17T09:21:48.270Z,6
2022-10-17T09:23:56.078Z,5
2022-10-17T09:25:54.319Z,5.8
2022-10-17T09:27:57.323Z,5.9
2022-10-17T09:30:03.477Z,6.8
2022-10-17T09:34:09.551Z,6.7
2022-10-17T09:36:12.560Z,6.2
2022-10-17T09:38:15.589Z,5.4
2022-10-17T09:40:18.630Z,5.9
2022-10-17T09:42:21.636Z,7
2022-10-17T09:44:27.788Z,7.4
2022-10-17T09:46:30.796Z,8.8
2022-10-17T09:48:33.806Z,8.2
2022-10-17T09:51:14.979Z,7.8
2022-10-17T09:53:06.310Z,5.9
2022-10-17T09:55:09.309Z,7.9
2022-10-17T09:59:18.479Z,6.9
2022-10-17T10:01:24.013Z,5.9
2022-10-17T10:07:30.616Z,7.1
2022-10-17T10:11:39.681Z,9.4
2022-10-17T10:15:45.734Z,7.9
2022-10-17T10:17:48.755Z,7.8
2022-10-17T10:19:51.757Z,6.5
2022-10-17T10:21:54.780Z,6.8
2022-10-17T10:23:57.802Z,7.5
2022-10-17T10:26:03.943Z,7.2
2022-10-17T10:28:06.960Z,7
2022-10-17T10:30:10.022Z,6
2022-10-17T10:32:13.011Z,6.2
2022-10-17T10:34:16.085Z,6.7
2022-10-17T10:36:19.058Z,6.6
2022-10-17T10:38:22.071Z,5.4
2022-10-17T10:40:28.226Z,7.6
2022-10-17T10:42:31.224Z,5.9
2022-10-17T10:44:34.272Z,5.6
2022-10-17T10:45:48.315Z,5.7
2022-10-17T10:47:40.355Z,6
2022-10-17T10:49:43.370Z,5.6
2022-10-17T10:51:46.398Z,5.1
2022-10-17T10:53:52.531Z,5.5
2022-10-17T10:55:55.540Z,4.2
2022-10-17T10:57:58.571Z,2.6
2022-10-17T11:00:01.596Z,4.3
2022-10-17T11:02:04.608Z,4.5
2022-10-17T11:04:07.606Z,3.4
2022-10-17T11:06:10.636Z,3.4
2022-10-17T11:08:16.782Z,3.2
2022-10-17T11:10:19.820Z,2.5
2022-10-17T11:12:22.821Z,3.2
2022-10-17T11:14:25.843Z,2.3
2022-10-17T11:16:28.896Z,2.9
2022-10-17T11:18:31.865Z,2
2022-10-17T11:20:34.882Z,2.3
2022-10-17T11:22:41.052Z,4.6
2022-10-17T11:24:44.067Z,2.6
2022-10-17T11:26:47.081Z,4.1
2022-10-17T11:28:50.196Z,2.9
2022-10-17T11:30:53.115Z,2.7
2022-10-17T11:32:56.128Z,2.8
2022-10-17T11:34:59.139Z,10.4
2022-10-17T11:37:05.274Z,3.7
2022-10-17T11:39:08.295Z,4.2
2022-10-17T11:41:11.300Z,3
2022-10-17T11:46:20.404Z,2.1
2022-10-17T11:48:23.453Z,1.5
2022-10-17T11:52:51.702Z,1.7
2022-10-17T11:54:35.626Z,1.7
2022-10-17T11:56:42.766Z,2.3
2022-10-17T11:58:41.641Z,1.8
2022-10-17T12:00:47.515Z,1.4
2022-10-17T12:02:47.675Z,1
2022-10-17T12:04:53.868Z,1.9
2022-10-17T12:06:56.810Z,1.2
2022-10-17T12:08:59.832Z,1.2
2022-10-17T12:11:02.846Z,1
2022-10-17T12:13:05.845Z,0.9
2022-10-17T12:15:08.862Z,0.6
2022-10-17T12:17:11.850Z,0.4
2022-10-17T12:19:17.992Z,1.4
2022-10-17T12:21:21.005Z,0.5
2022-10-17T12:23:24.009Z,0.1
2022-10-17T12:27:30.446Z,0.8
2022-10-17T12:33:42.162Z,0.8
2022-10-17T12:35:45.171Z,0.8
2022-10-17T12:37:48.167Z,0.5
2022-10-17T12:38:51.225Z,0.9
2022-10-17T12:40:54.226Z,0.9
2022-10-17T12:42:57.238Z,0.5
2022-10-17T12:45:00.226Z,0.6
2022-10-17T12:47:06.345Z,0.8
2022-10-17T12:49:09.358Z,0.6
2022-10-17T12:51:34.303Z,0.7
2022-10-17T12:53:18.398Z,0.7
2022-10-17T12:55:18.360Z,0.9
2022-10-17T12:57:21.341Z,1.4
2022-10-17T12:59:24.348Z,1.8
2022-10-17T13:01:30.519Z,1.1
2022-10-17T13:03:33.471Z,0.8
2022-10-17T13:05:36.470Z,1.2
2022-10-17T13:07:39.488Z,1.5
2022-10-17T13:09:42.475Z,1.5
2022-10-17T13:13:48.469Z,2.2
2022-10-17T13:15:54.592Z,2
2022-10-17T13:17:57.585Z,1.2
2022-10-17T13:20:00.616Z,1.8
2022-10-17T13:22:06.937Z,1.4
2022-10-17T13:24:06.620Z,1.4
2022-10-17T13:26:09.628Z,1
2022-10-17T13:28:12.632Z,2.5
2022-10-17T13:30:19.113Z,1.9
2022-10-17T13:32:21.939Z,2.1
2022-10-17T13:34:24.791Z,2.4
2022-10-17T13:36:54.208Z,2.2
2022-10-17T13:38:57.208Z,2.1
2022-10-17T13:41:10.890Z,2
2022-10-17T13:43:06.309Z,2.5
2022-10-17T13:45:09.323Z,2.6
2022-10-17T13:47:12.347Z,3.1
2022-10-17T13:49:15.334Z,3.7
2022-10-17T13:51:18.324Z,2.8
2022-10-17T13:53:21.329Z,3.8
2022-10-17T13:55:24.337Z,3.9
2022-10-17T13:57:30.707Z,4.2
2022-10-17T13:59:33.481Z,3.6
2022-10-17T14:01:36.500Z,3.8
2022-10-17T14:03:48.133Z,3.4
2022-10-17T14:05:42.507Z,5.4
2022-10-17T14:08:05.698Z,3.9
2022-10-17T14:09:48.513Z,3.9
2022-10-17T14:11:54.634Z,4.3
2022-10-17T14:13:57.633Z,5.1
2022-10-17T14:16:00.645Z,4.6
2022-10-17T14:18:07.572Z,5.4
2022-10-17T14:20:34.411Z,4.9
2022-10-17T14:22:09.658Z,4
2022-10-17T14:24:12.665Z,4.6
2022-10-17T14:26:18.787Z,4.4
2022-10-17T14:28:21.835Z,5.9
2022-10-17T14:30:38.804Z,4.1
2022-10-17T14:31:27.883Z,4.9
2022-10-17T14:33:32.448Z,4.2
2022-10-17T14:35:41.939Z,4.1
2022-10-17T14:37:38.410Z,5
2022-10-17T14:39:44.537Z,3.9
2022-10-17T14:41:47.673Z,5.4
2022-10-17T14:43:50.575Z,3.8
2022-10-17T14:45:53.576Z,4.2
2022-10-17T14:47:56.577Z,3.1
2022-10-17T14:49:59.589Z,3.5
2022-10-17T14:52:07.979Z,2.8
2022-10-17T14:54:08.720Z,3.9
2022-10-17T14:56:11.724Z,2.5
2022-10-17T14:58:14.732Z,1.7
2022-10-17T15:00:17.747Z,3.2
2022-10-17T15:02:20.752Z,2.6
2022-10-17T15:04:23.764Z,3.6
2022-10-17T15:06:26.770Z,2.2
2022-10-17T15:08:32.959Z,2.8
2022-10-17T15:10:35.947Z,2.8
2022-10-17T15:12:43.625Z,2.5
2022-10-17T15:14:41.925Z,3.1
2022-10-17T15:16:44.906Z,2.2
2022-10-17T15:18:47.929Z,3.2
2022-10-17T15:20:59.507Z,3.3
2022-10-17T15:22:57.039Z,2.9
2022-10-17T15:25:00.024Z,2.4
2022-10-17T15:27:03.033Z,3.4
2022-10-17T15:28:06.107Z,2.8
2022-10-17T15:30:09.098Z,2.8
2022-10-17T15:32:12.128Z,3.2
2022-10-17T15:34:15.116Z,2.9
2022-10-17T15:36:21.209Z,4.4
2022-10-17T15:38:24.237Z,3.9
2022-10-17T15:40:27.228Z,4.2
2022-10-17T15:42:30.258Z,4.9
2022-10-17T15:44:33.248Z,4.7
2022-10-17T15:46:36.271Z,3.1
2022-10-17T15:48:39.281Z,3.1
2022-10-17T15:50:45.393Z,4.4
2022-10-17T15:52:48.404Z,3.7
2022-10-17T15:54:51.435Z,3.4
2022-10-17T15:56:54.439Z,3
2022-10-17T15:58:57.447Z,4
2022-10-17T16:01:00.545Z,4
2022-10-17T16:03:03.479Z,4.1
2022-10-17T16:05:09.615Z,4.3
2022-10-17T16:07:12.621Z,4.2
2022-10-17T16:15:24.660Z,4.3
2022-10-17T16:21:36.855Z,5.2
2022-10-17T16:23:39.849Z,5.8
2022-10-17T16:26:45.939Z,6
2022-10-17T16:28:48.984Z,8.7
2022-10-17T16:30:51.964Z,5.8
2022-10-17T16:32:58.086Z,7.6
2022-10-17T16:35:01.116Z,7.6
2022-10-17T16:37:04.136Z,7.2
2022-10-17T16:39:07.136Z,7.7
2022-10-17T16:41:10.178Z,6.7
2022-10-17T16:43:13.167Z,10.7
2022-10-17T16:45:16.191Z,10.3
2022-10-17T16:47:22.342Z,11
2022-10-17T16:49:25.360Z,8.3
2022-10-17T16:51:28.368Z,9.4
2022-10-17T16:55:34.402Z,8.9
2022-10-17T16:57:37.499Z,12.6
2022-10-17T16:59:40.436Z,10.2
2022-10-17T17:01:46.590Z,12.7
2022-10-17T17:03:49.615Z,11.2
2022-10-17T17:05:52.636Z,12.2
2022-10-17T17:07:55.650Z,12.6
2022-10-17T17:09:58.661Z,11.1
2022-10-17T17:12:01.691Z,12.3
2022-10-17T17:20:16.849Z,11
2022-10-17T17:22:44.380Z,10.9
2022-10-17T17:24:47.392Z,9.7
2022-10-17T17:26:50.408Z,10.3
2022-10-17T17:28:56.622Z,10.9
2022-10-17T17:30:59.565Z,9.5
2022-10-17T17:33:02.572Z,8.9
2022-10-17T17:35:05.599Z,11.9
2022-10-17T17:37:08.625Z,8.3
2022-10-17T17:41:14.629Z,9.3
2022-10-17T17:43:20.798Z,9.5
2022-10-17T17:45:23.792Z,8.3
2022-10-17T17:47:26.799Z,8.7
2022-10-17T17:49:29.828Z,8.4
2022-10-17T17:53:35.855Z,11.5
2022-10-17T17:55:38.870Z,11.1
2022-10-17T17:57:45.006Z,11.9
2022-10-17T17:59:48.001Z,12.9
2022-10-17T18:01:51.084Z,13.1
2022-10-17T18:03:54.098Z,15.3
2022-10-17T18:05:57.087Z,12.7
2022-10-17T18:08:00.156Z,14.1
2022-10-17T18:10:03.226Z,15.8
2022-10-17T18:12:09.280Z,14.8
2022-10-17T18:14:12.285Z,11.5
2022-10-17T18:16:15.310Z,12.3
2022-10-17T18:17:18.372Z,13.7
2022-10-17T18:19:21.551Z,14.2
2022-10-17T18:23:27.414Z,12.2
2022-10-17T18:27:36.605Z,13.2
2022-10-17T18:33:45.635Z,15.3
2022-10-17T18:37:51.683Z,16.7
2022-10-17T18:39:57.820Z,19.7
2022-10-17T18:42:00.832Z,16.8
2022-10-17T18:46:10.864Z,18.9
2022-10-17T18:48:09.907Z,19.1
2022-10-17T18:52:15.940Z,18.4
2022-10-17T18:58:28.117Z,40
2022-10-17T19:04:37.207Z,20.7
2022-10-17T19:06:40.172Z,20.7
2022-10-17T19:08:46.325Z,21.8
2022-10-17T19:10:49.354Z,23
2022-10-17T19:12:52.348Z,25.5
2022-10-17T19:13:55.434Z,22.9
2022-10-17T19:15:58.453Z,25.1
2022-10-17T19:18:01.472Z,24.4
2022-10-17T19:22:10.628Z,29.6
2022-10-17T19:26:16.652Z,27.5
2022-10-17T19:28:19.672Z,33.4
2022-10-17T19:30:22.687Z,26.8
2022-10-17T19:32:25.690Z,30
2022-10-17T19:34:28.721Z,30.2
2022-10-17T19:36:34.868Z,31.7
2022-10-17T19:38:37.871Z,28.7
2022-10-17T19:40:40.890Z,26.2
2022-10-17T19:42:43.935Z,30.6
2022-10-17T19:44:46.945Z,30.3
2022-10-17T19:46:49.955Z,36.1
2022-10-17T19:48:52.983Z,31.1
2022-10-17T19:50:59.100Z,32.9
2022-10-17T19:53:02.146Z,31.5
2022-10-17T19:57:10.443Z,32.7
2022-10-17T19:59:11.264Z,34.6
2022-10-17T20:01:14.309Z,31.4
2022-10-17T20:03:17.216Z,32
2022-10-17T20:05:27.276Z,37.4
2022-10-17T20:07:26.368Z,33.1
2022-10-17T20:09:29.378Z,31.7
2022-10-17T20:14:40.991Z,34.6
2022-10-17T20:16:41.508Z,34.3
2022-10-17T20:18:47.634Z,33.7
2022-10-17T20:20:50.648Z,33.4
2022-10-17T20:22:53.664Z,33.3
2022-10-17T20:24:56.663Z,33.8
2022-10-17T20:26:59.697Z,32.2
2022-10-17T20:29:04.417Z,31
2022-10-17T20:31:07.241Z,31.8
2022-10-17T20:33:13.388Z,33.9
2022-10-17T20:35:16.419Z,30.5
2022-10-17T20:37:19.403Z,29.3
2022-10-17T20:39:22.432Z,29.9
2022-10-17T20:41:25.449Z,35
2022-10-17T20:43:28.464Z,28.6
2022-10-17T20:45:45.065Z,30.5
2022-10-17T20:47:44.978Z,30.7
2022-10-17T20:49:40.646Z,28
2022-10-17T20:51:43.655Z,29.4
2022-10-17T20:53:46.707Z,28.8
2022-10-17T20:55:49.691Z,30.5
2022-10-17T20:57:52.682Z,26.8
2022-10-17T20:59:55.718Z,28.1
2022-10-17T21:02:01.930Z,32.8
2022-10-17T21:04:26.907Z,31.4
2022-10-17T21:06:07.870Z,28.6
2022-10-17T21:08:37.336Z,35.1
2022-10-17T21:10:40.348Z,28.6
2022-10-17T21:14:49.466Z,34.7
2022-10-17T21:16:52.457Z,30.4
2022-10-17T21:18:55.469Z,27.5
2022-10-17T21:20:58.548Z,27.4
2022-10-17T21:23:01.501Z,26
2022-10-17T21:27:07.513Z,29
2022-10-17T21:29:13.648Z,27.2
2022-10-17T21:31:16.659Z,28.4
2022-10-17T21:33:19.673Z,31.4
2022-10-17T21:35:22.831Z,27
2022-10-17T21:37:25.703Z,29.3
2022-10-17T21:39:28.744Z,29.1
2022-10-17T21:41:31.727Z,28.8
2022-10-17T21:43:37.864Z,30.7
2022-10-17T21:47:55.021Z,25.4
2022-10-17T21:49:46.900Z,25.4
2022-10-17T21:55:55.949Z,29.5
2022-10-17T22:02:08.114Z,29.2
2022-10-17T22:03:11.172Z,27.9
2022-10-17T22:05:14.212Z,26.5
2022-10-17T22:07:17.230Z,30.2
2022-10-17T22:09:20.237Z,28.9
2022-10-17T22:11:26.380Z,26.9
2022-10-17T22:13:29.388Z,30.7
2022-10-17T22:15:32.403Z,29.1
2022-10-17T22:17:35.437Z,29.4
2022-10-17T22:19:38.447Z,27.3
2022-10-17T22:21:41.448Z,28
2022-10-17T22:23:44.470Z,29.1
2022-10-17T22:25:50.582Z,34.8
2022-10-17T22:27:53.624Z,29.5
2022-10-17T22:29:56.628Z,29.6
2022-10-17T22:40:14.822Z,31.4
2022-10-17T22:44:20.876Z,33.3
2022-10-17T22:48:26.888Z,27.8
2022-10-17T22:50:29.910Z,29.6
2022-10-17T22:52:33.249Z,29.9
2022-10-17T22:54:39.043Z,32.6
2022-10-17T22:56:42.077Z,30.2
2022-10-17T22:58:45.070Z,31.1
2022-10-17T23:01:51.212Z,29.1
2022-10-17T23:03:54.196Z,28.1
2022-10-17T23:05:57.197Z,29.3
2022-10-17T23:08:03.323Z,30.9
2022-10-17T23:10:06.346Z,28.1
2022-10-17T23:12:09.366Z,26.6
2022-10-17T23:14:12.373Z,26.4
2022-10-17T23:16:15.389Z,29.2
2022-10-17T23:18:18.438Z,30.3
2022-10-17T23:20:21.436Z,30.3
2022-10-17T23:22:27.690Z,31.1
2022-10-17T23:24:30.566Z,28.2
2022-10-17T23:26:33.622Z,32.4
2022-10-17T23:28:36.673Z,30.1
2022-10-17T23:30:39.651Z,30
2022-10-17T23:32:42.693Z,29.5
2022-10-17T23:34:45.700Z,32.8
2022-10-17T23:36:51.818Z,32.3
2022-10-17T23:43:00.878Z,30.2
2022-10-17T23:45:03.869Z,30.1
2022-10-17T23:51:16.046Z,35.2
2022-10-17T23:53:19.048Z,32
2022-10-17T23:55:22.099Z,33
2022-10-17T23:56:25.133Z,34.9
2022-10-17T23:58:28.173Z,32.2
